createdAt,value
2022-11-16T00:01:32.511Z,2.80
2022-11-16T00:04:01.424Z,2.80
2022-11-16T00:06:29.442Z,2.80
2022-11-16T00:09:18.772Z,2.90
2022-11-16T00:11:45.900Z,2.90
2022-11-16T00:14:12.910Z,2.90
2022-11-16T00:16:40.484Z,2.90
2022-11-16T00:19:08.385Z,2.90
2022-11-16T00:21:35.504Z,2.90
2022-11-16T00:24:03.228Z,2.90
2022-11-16T00:26:30.538Z,2.80
2022-11-16T00:28:57.890Z,2.80
2022-11-16T00:31:25.303Z,2.90
2022-11-16T00:33:52.925Z,2.90
2022-11-16T00:36:20.074Z,2.80
2022-11-16T00:38:47.052Z,2.80
2022-11-16T00:41:14.387Z,2.80
2022-11-16T00:43:41.377Z,2.80
2022-11-16T00:46:09.453Z,2.80
2022-11-16T00:48:36.597Z,2.70
2022-11-16T00:51:03.914Z,2.80
2022-11-16T00:53:31.185Z,2.80
2022-11-16T00:55:58.174Z,2.80
2022-11-16T00:58:25.196Z,2.80
2022-11-16T01:00:52.220Z,2.80
2022-11-16T01:03:19.251Z,2.80
2022-11-16T01:05:46.265Z,2.80
2022-11-16T01:08:13.298Z,2.80
2022-11-16T01:10:41.195Z,2.80
2022-11-16T01:13:08.125Z,2.80
2022-11-16T01:15:35.074Z,2.80
2022-11-16T01:18:02.046Z,2.80
2022-11-16T01:20:30.510Z,2.70
2022-11-16T01:22:57.519Z,2.70
2022-11-16T01:25:24.517Z,2.80
2022-11-16T01:27:51.721Z,2.80
2022-11-16T01:30:18.773Z,2.80
2022-11-16T01:32:45.699Z,2.80
2022-11-16T01:35:17.850Z,2.80
2022-11-16T01:37:45.349Z,2.80
2022-11-16T01:40:14.141Z,2.80
2022-11-16T01:42:41.377Z,2.80
2022-11-16T01:45:41.328Z,2.80
2022-11-16T01:48:22.128Z,2.80
2022-11-16T01:50:50.004Z,2.80
2022-11-16T01:53:17.203Z,2.80
2022-11-16T01:55:46.549Z,2.80
2022-11-16T01:58:18.821Z,2.70
2022-11-16T02:00:45.909Z,2.80
2022-11-16T02:03:12.860Z,2.70
2022-11-16T02:06:02.043Z,2.70
2022-11-16T02:09:13.256Z,2.70
2022-11-16T02:12:00.987Z,2.80
2022-11-16T02:15:15.894Z,2.70
2022-11-16T02:18:01.142Z,2.70
2022-11-16T02:20:54.926Z,2.70
2022-11-16T02:24:03.088Z,2.70
2022-11-16T02:27:05.250Z,2.70
2022-11-16T02:29:42.762Z,2.70
2022-11-16T02:32:33.639Z,2.60
2022-11-16T02:35:07.469Z,2.70
2022-11-16T02:37:42.994Z,2.70
2022-11-16T02:40:13.486Z,2.70
2022-11-16T02:43:06.738Z,2.70
2022-11-16T02:45:37.600Z,2.60
2022-11-16T02:48:12.975Z,2.70
2022-11-16T02:50:40.113Z,2.70
2022-11-16T02:53:07.292Z,2.70
2022-11-16T02:55:36.560Z,2.70
2022-11-16T02:58:09.766Z,2.70
2022-11-16T03:01:03.006Z,2.70
2022-11-16T03:03:49.253Z,2.60
2022-11-16T03:06:23.970Z,2.60
2022-11-16T03:09:02.698Z,2.60
2022-11-16T03:11:49.733Z,2.60
2022-11-16T03:14:20.646Z,2.60
2022-11-16T03:16:52.775Z,2.60
2022-11-16T03:19:32.723Z,2.60
2022-11-16T03:22:21.469Z,2.60
2022-11-16T03:24:48.592Z,2.60
2022-11-16T03:27:38.560Z,2.60
2022-11-16T03:30:18.137Z,2.60
2022-11-16T03:33:21.257Z,2.50
2022-11-16T03:35:59.797Z,2.60
2022-11-16T03:38:28.569Z,2.60
2022-11-16T03:41:03.271Z,2.60
2022-11-16T03:43:31.890Z,2.60
2022-11-16T03:45:59.345Z,2.60
2022-11-16T03:48:32.395Z,2.60
2022-11-16T03:50:59.590Z,2.60
2022-11-16T03:53:26.618Z,2.60
2022-11-16T03:55:53.529Z,2.50
2022-11-16T03:58:20.508Z,2.50
2022-11-16T04:00:47.641Z,2.50
2022-11-16T04:03:14.622Z,2.60
2022-11-16T04:06:00.393Z,2.50
2022-11-16T04:08:46.009Z,2.50
2022-11-16T04:11:37.370Z,2.50
2022-11-16T04:14:23.736Z,2.50
2022-11-16T04:17:09.735Z,2.50
2022-11-16T04:19:58.122Z,2.50
2022-11-16T04:22:48.618Z,2.50
2022-11-16T04:25:20.306Z,2.50
2022-11-16T04:28:06.482Z,2.50
2022-11-16T04:30:52.306Z,2.40
2022-11-16T04:33:37.942Z,2.50
2022-11-16T04:36:24.022Z,2.60
2022-11-16T04:38:50.981Z,2.50
2022-11-16T04:41:36.461Z,2.60
2022-11-16T04:44:03.452Z,2.50
2022-11-16T04:46:48.815Z,2.50
2022-11-16T04:49:15.773Z,2.50
2022-11-16T04:51:42.721Z,2.40
2022-11-16T04:54:09.652Z,2.40
2022-11-16T04:56:36.610Z,2.40
2022-11-16T04:59:03.766Z,2.40
2022-11-16T05:01:49.435Z,2.40
2022-11-16T05:04:16.459Z,2.40
2022-11-16T05:06:43.500Z,2.30
2022-11-16T05:09:10.466Z,2.30
2022-11-16T05:11:37.418Z,2.30
2022-11-16T05:14:05.910Z,2.30
2022-11-16T05:16:33.872Z,2.40
2022-11-16T05:19:19.337Z,2.30
2022-11-16T05:21:46.709Z,2.30
2022-11-16T05:24:32.382Z,2.30
2022-11-16T05:27:03.675Z,2.30
2022-11-16T05:29:31.183Z,2.20
2022-11-16T05:31:59.087Z,2.10
2022-11-16T05:34:26.134Z,2.10
2022-11-16T05:36:53.163Z,2.10
2022-11-16T05:39:20.570Z,2.00
2022-11-16T05:41:48.450Z,2.00
2022-11-16T05:44:16.450Z,1.90
2022-11-16T05:46:44.778Z,1.90
2022-11-16T05:49:13.281Z,1.90
2022-11-16T05:51:42.461Z,1.80
2022-11-16T05:54:16.726Z,1.80
2022-11-16T05:56:43.966Z,1.80
2022-11-16T05:59:16.701Z,1.80
2022-11-16T06:01:44.526Z,1.80
2022-11-16T06:04:12.409Z,1.70
2022-11-16T06:06:39.498Z,1.70
2022-11-16T06:09:07.015Z,1.60
2022-11-16T06:11:36.221Z,1.60
2022-11-16T06:14:03.788Z,1.60
2022-11-16T06:16:31.453Z,1.60
2022-11-16T06:18:59.582Z,1.50
2022-11-16T06:21:26.833Z,1.60
2022-11-16T06:23:53.792Z,1.60
2022-11-16T06:26:20.849Z,1.60
2022-11-16T06:28:48.035Z,1.60
2022-11-16T06:31:15.093Z,1.50
2022-11-16T06:33:42.161Z,1.50
2022-11-16T06:36:09.418Z,1.50
2022-11-16T06:38:36.689Z,1.50
2022-11-16T06:41:04.157Z,1.50
2022-11-16T06:43:31.172Z,1.50
2022-11-16T06:45:58.608Z,1.50
2022-11-16T06:48:25.832Z,1.50
2022-11-16T06:50:53.621Z,1.50
2022-11-16T06:53:25.897Z,1.50
2022-11-16T06:55:55.893Z,1.50
2022-11-16T06:58:22.936Z,1.40
2022-11-16T07:00:49.933Z,1.40
2022-11-16T07:03:16.897Z,1.40
2022-11-16T07:05:43.874Z,1.30
2022-11-16T07:08:10.849Z,1.40
2022-11-16T07:10:38.439Z,1.40
2022-11-16T07:13:05.689Z,1.40
2022-11-16T07:15:33.246Z,1.50
2022-11-16T07:18:04.798Z,1.50
2022-11-16T07:20:32.000Z,1.40
2022-11-16T07:23:03.688Z,1.40
2022-11-16T07:25:33.446Z,1.40
2022-11-16T07:28:00.455Z,1.40
2022-11-16T07:30:27.769Z,1.40
2022-11-16T07:32:59.234Z,1.40
2022-11-16T07:35:26.657Z,1.40
2022-11-16T07:37:53.778Z,1.40
2022-11-16T07:40:21.793Z,1.40
2022-11-16T07:42:49.402Z,1.30
2022-11-16T07:45:16.481Z,1.40
2022-11-16T07:47:43.763Z,1.40
2022-11-16T07:50:11.066Z,1.40
2022-11-16T07:52:38.276Z,1.30
2022-11-16T07:55:05.919Z,1.40
2022-11-16T07:57:32.932Z,1.40
2022-11-16T08:00:00.010Z,1.40
2022-11-16T08:02:26.978Z,1.40
2022-11-16T08:04:54.099Z,1.40
2022-11-16T08:07:21.280Z,1.50
2022-11-16T08:09:50.018Z,1.50
2022-11-16T08:12:17.666Z,1.50
2022-11-16T08:14:44.775Z,1.60
2022-11-16T08:17:11.775Z,1.60
2022-11-16T08:19:40.245Z,1.60
2022-11-16T08:22:07.278Z,1.60
2022-11-16T08:24:34.238Z,1.60
2022-11-16T08:27:01.317Z,1.60
2022-11-16T08:29:28.407Z,1.70
2022-11-16T08:31:55.662Z,1.70
2022-11-16T08:34:22.900Z,1.70
2022-11-16T08:36:49.911Z,1.70
2022-11-16T08:39:16.844Z,1.70
2022-11-16T08:41:44.522Z,1.60
2022-11-16T08:44:11.820Z,1.70
2022-11-16T08:46:39.981Z,1.70
2022-11-16T08:49:07.035Z,1.70
2022-11-16T08:51:34.272Z,1.80
2022-11-16T08:54:03.680Z,1.80
2022-11-16T08:56:30.742Z,1.80
2022-11-16T08:58:59.097Z,1.80
2022-11-16T09:01:29.525Z,1.80
2022-11-16T09:03:57.132Z,1.80
2022-11-16T09:06:25.652Z,1.90
2022-11-16T09:08:53.007Z,1.90
2022-11-16T09:11:22.399Z,1.90
2022-11-16T09:13:51.191Z,1.90
2022-11-16T09:16:20.923Z,1.90
2022-11-16T09:18:49.755Z,1.90
2022-11-16T09:21:21.991Z,1.90
2022-11-16T09:23:50.165Z,1.90
2022-11-16T09:26:20.961Z,1.90
2022-11-16T09:29:08.678Z,2.00
2022-11-16T09:31:37.273Z,2.00
2022-11-16T09:34:04.519Z,2.00
2022-11-16T09:36:31.562Z,2.10
2022-11-16T09:42:19.656Z,2.10
2022-11-16T09:45:04.717Z,2.10
2022-11-16T09:47:49.603Z,2.20
2022-11-16T09:50:31.550Z,2.20
2022-11-16T09:53:22.295Z,2.20
2022-11-16T09:55:52.987Z,2.20
2022-11-16T09:58:31.616Z,2.20
2022-11-16T10:01:23.775Z,2.30
2022-11-16T10:04:08.751Z,2.30
2022-11-16T10:06:47.645Z,2.30
2022-11-16T10:09:14.755Z,2.30
2022-11-16T10:12:12.662Z,2.30
2022-11-16T10:15:01.414Z,2.30
2022-11-16T10:17:40.441Z,2.30
2022-11-16T10:20:31.940Z,2.30
2022-11-16T10:23:23.472Z,2.40
2022-11-16T10:25:58.951Z,2.30
2022-11-16T10:28:25.890Z,2.40
2022-11-16T10:31:23.822Z,2.40
2022-11-16T10:33:57.111Z,2.40
2022-11-16T10:36:27.563Z,2.40
2022-11-16T10:38:57.075Z,2.40
2022-11-16T10:41:56.908Z,2.40
2022-11-16T10:44:44.011Z,2.40
2022-11-16T10:47:19.632Z,2.50
2022-11-16T10:50:31.908Z,2.50
2022-11-16T10:53:00.083Z,2.50
2022-11-16T10:55:28.783Z,2.50
2022-11-16T10:57:56.374Z,2.50
2022-11-16T11:00:36.991Z,2.50
2022-11-16T11:03:04.187Z,2.50
2022-11-16T11:05:31.484Z,2.50
2022-11-16T11:08:09.598Z,2.60
2022-11-16T11:10:38.909Z,2.60
2022-11-16T11:13:11.961Z,2.60
2022-11-16T11:15:41.280Z,2.60
2022-11-16T11:18:23.619Z,2.60
2022-11-16T11:21:12.789Z,2.60
2022-11-16T11:23:45.434Z,2.50
2022-11-16T11:26:37.432Z,2.50
2022-11-16T11:29:20.044Z,2.50
2022-11-16T11:31:52.607Z,2.50
2022-11-16T11:34:23.703Z,2.50
2022-11-16T11:36:58.535Z,2.50
2022-11-16T11:39:29.622Z,2.50
2022-11-16T11:42:13.681Z,2.60
2022-11-16T11:44:49.909Z,2.60
2022-11-16T11:47:57.362Z,2.60
2022-11-16T11:50:40.409Z,2.60
2022-11-16T11:53:24.039Z,2.50
2022-11-16T11:56:11.774Z,2.60
2022-11-16T11:58:40.740Z,2.60
2022-11-16T12:01:26.031Z,2.60
2022-11-16T12:03:59.113Z,2.60
2022-11-16T12:06:33.886Z,2.60
2022-11-16T12:09:00.837Z,2.70
2022-11-16T12:11:27.772Z,2.60
2022-11-16T12:14:15.340Z,2.60
2022-11-16T12:17:17.236Z,2.70
2022-11-16T12:20:21.002Z,2.60
2022-11-16T12:23:04.241Z,2.60
2022-11-16T12:25:41.950Z,2.50
2022-11-16T12:28:24.560Z,2.50
2022-11-16T12:31:14.322Z,2.50
2022-11-16T12:34:10.291Z,2.50
2022-11-16T12:37:02.320Z,2.40
2022-11-16T12:40:04.157Z,2.40
2022-11-16T12:42:40.606Z,2.40
2022-11-16T12:45:37.971Z,2.40
2022-11-16T12:48:10.793Z,2.40
2022-11-16T12:50:45.382Z,2.40
2022-11-16T12:53:38.242Z,2.40
2022-11-16T12:56:37.559Z,2.40
2022-11-16T12:59:22.276Z,2.40
2022-11-16T13:02:01.902Z,2.40
2022-11-16T13:04:41.166Z,2.50
2022-11-16T13:07:41.604Z,2.50
2022-11-16T13:10:23.021Z,2.40
2022-11-16T13:13:21.994Z,2.40
2022-11-16T13:15:46.354Z,2.40
2022-11-16T13:18:17.685Z,2.30
2022-11-16T13:20:48.784Z,2.40
2022-11-16T13:23:33.581Z,2.40
2022-11-16T13:26:31.642Z,2.40
2022-11-16T13:29:06.991Z,2.40
2022-11-16T13:31:43.757Z,2.40
2022-11-16T13:34:27.327Z,2.40
2022-11-16T13:36:54.341Z,2.30
2022-11-16T13:39:41.924Z,2.20
2022-11-16T13:42:13.105Z,2.20
2022-11-16T13:44:40.203Z,2.30
2022-11-16T13:47:28.279Z,2.30
2022-11-16T13:49:59.624Z,2.20
2022-11-16T13:53:36.520Z,2.20
2022-11-16T13:55:48.267Z,2.20
2022-11-16T13:58:21.678Z,2.20
2022-11-16T14:01:15.745Z,2.20
2022-11-16T14:03:51.733Z,2.20
2022-11-16T14:06:24.765Z,2.20
2022-11-16T14:09:00.735Z,2.10
2022-11-16T14:11:39.499Z,2.10
2022-11-16T14:14:11.515Z,2.00
2022-11-16T14:16:56.649Z,2.00
2022-11-16T14:19:47.616Z,2.00
2022-11-16T14:22:41.838Z,2.00
2022-11-16T14:25:30.194Z,2.00
2022-11-16T14:27:57.146Z,2.00
2022-11-16T14:30:46.093Z,2.00
2022-11-16T14:33:23.815Z,1.90
2022-11-16T14:35:53.404Z,1.90
2022-11-16T14:38:33.779Z,1.90
2022-11-16T14:41:04.599Z,2.00
2022-11-16T14:43:43.252Z,2.00
2022-11-16T14:46:28.485Z,2.00
2022-11-16T14:48:57.517Z,1.90
2022-11-16T14:51:37.100Z,1.90
2022-11-16T14:54:34.042Z,1.90
2022-11-16T14:57:03.624Z,2.00
2022-11-16T14:59:31.608Z,1.90
2022-11-16T15:02:04.851Z,1.90
2022-11-16T15:04:32.528Z,1.90
2022-11-16T15:07:04.933Z,1.90
2022-11-16T15:09:39.217Z,1.90
2022-11-16T15:12:33.161Z,1.90
2022-11-16T15:15:07.429Z,1.90
2022-11-16T15:17:35.066Z,1.80
2022-11-16T15:20:23.823Z,1.90
2022-11-16T15:22:56.848Z,1.90
2022-11-16T15:25:44.357Z,1.90
2022-11-16T15:28:18.018Z,1.90
2022-11-16T15:30:49.609Z,1.90
2022-11-16T15:33:19.961Z,1.80
2022-11-16T15:35:47.336Z,1.90
2022-11-16T15:38:19.118Z,1.80
2022-11-16T15:40:56.463Z,1.80
2022-11-16T15:43:33.252Z,1.80
2022-11-16T15:46:01.360Z,1.80
2022-11-16T15:48:29.329Z,1.80
2022-11-16T15:51:14.131Z,1.70
2022-11-16T15:53:49.114Z,1.70
2022-11-16T15:56:25.218Z,1.70
2022-11-16T15:59:01.261Z,1.70
2022-11-16T16:01:30.131Z,1.70
2022-11-16T16:04:01.431Z,1.70
2022-11-16T16:06:55.197Z,1.70
2022-11-16T16:09:30.773Z,1.70
2022-11-16T16:12:22.114Z,1.80
2022-11-16T16:14:50.692Z,1.80
2022-11-16T16:17:31.092Z,1.80
2022-11-16T16:20:03.946Z,1.70
2022-11-16T16:22:33.239Z,1.80
2022-11-16T16:25:04.126Z,1.70
2022-11-16T16:27:32.322Z,1.70
2022-11-16T16:30:05.404Z,1.70
2022-11-16T16:32:35.781Z,1.70
2022-11-16T16:35:07.768Z,1.70
2022-11-16T16:37:37.276Z,1.70
2022-11-16T16:40:06.524Z,1.70
2022-11-16T16:42:34.670Z,1.70
2022-11-16T16:45:03.326Z,1.70
2022-11-16T16:47:32.273Z,1.70
2022-11-16T16:50:00.127Z,1.70
2022-11-16T16:52:28.510Z,1.70
2022-11-16T16:54:56.203Z,1.70
2022-11-16T16:57:23.873Z,1.70
2022-11-16T16:59:51.491Z,1.70
2022-11-16T17:02:18.954Z,1.60
2022-11-16T17:04:49.443Z,1.60
2022-11-16T17:07:17.720Z,1.60
2022-11-16T17:09:45.513Z,1.60
2022-11-16T17:12:13.603Z,1.60
2022-11-16T17:14:41.634Z,1.60
2022-11-16T17:17:09.835Z,1.50
2022-11-16T17:19:38.295Z,1.50
2022-11-16T17:22:06.535Z,1.60
2022-11-16T17:24:36.390Z,1.60
2022-11-16T17:27:04.688Z,1.60
2022-11-16T17:29:33.001Z,1.60
2022-11-16T17:32:03.932Z,1.60
2022-11-16T17:34:32.693Z,1.50
2022-11-16T17:37:02.575Z,1.50
2022-11-16T17:39:30.749Z,1.60
2022-11-16T17:41:59.114Z,1.60
2022-11-16T17:44:28.512Z,1.60
2022-11-16T17:46:56.804Z,1.60
2022-11-16T17:49:24.947Z,1.60
2022-11-16T17:51:55.372Z,1.60
2022-11-16T17:54:23.489Z,1.50
2022-11-16T17:56:55.100Z,1.50
2022-11-16T17:59:28.990Z,1.50
2022-11-16T18:01:58.511Z,1.50
2022-11-16T18:04:26.712Z,1.50
2022-11-16T18:06:55.000Z,1.50
2022-11-16T18:09:23.346Z,1.60
2022-11-16T18:11:51.601Z,1.60
2022-11-16T18:14:19.882Z,1.60
2022-11-16T18:16:48.559Z,1.60
2022-11-16T18:19:18.968Z,1.50
2022-11-16T18:21:48.802Z,1.50
2022-11-16T18:24:17.055Z,1.60
2022-11-16T18:26:45.309Z,1.50
2022-11-16T18:29:16.361Z,1.60
2022-11-16T18:31:44.535Z,1.50
2022-11-16T18:34:14.997Z,1.50
2022-11-16T18:36:43.126Z,1.40
2022-11-16T18:39:11.277Z,1.40
2022-11-16T18:41:51.720Z,1.50
2022-11-16T18:44:22.993Z,1.60
2022-11-16T18:46:51.521Z,1.50
2022-11-16T18:49:19.464Z,1.40
2022-11-16T18:51:47.422Z,1.40
2022-11-16T18:54:15.330Z,1.40
2022-11-16T18:56:42.379Z,1.40
2022-11-16T18:59:09.494Z,1.30
2022-11-16T19:01:36.691Z,1.30
2022-11-16T19:04:03.819Z,1.30
2022-11-16T19:06:32.350Z,1.30
2022-11-16T19:09:00.032Z,1.30
2022-11-16T19:11:28.478Z,1.30
2022-11-16T19:14:07.805Z,1.30
2022-11-16T19:16:35.550Z,1.30
2022-11-16T19:19:02.600Z,1.30
2022-11-16T19:21:29.918Z,1.30
2022-11-16T19:23:57.589Z,1.20
2022-11-16T19:26:27.001Z,1.20
2022-11-16T19:28:54.424Z,1.10
2022-11-16T19:31:29.301Z,1.20
2022-11-16T19:34:02.012Z,1.20
2022-11-16T19:36:30.438Z,1.20
2022-11-16T19:38:58.106Z,1.20
2022-11-16T19:41:25.973Z,1.10
2022-11-16T19:43:59.142Z,1.10
2022-11-16T19:46:33.956Z,1.20
2022-11-16T19:49:01.533Z,1.10
2022-11-16T19:51:30.825Z,1.10
2022-11-16T19:54:00.049Z,1.10
2022-11-16T19:56:27.391Z,1.10
2022-11-16T19:58:54.553Z,1.10
2022-11-16T20:01:29.136Z,1.10
2022-11-16T20:03:58.653Z,1.00
2022-11-16T20:06:29.413Z,0.90
2022-11-16T20:09:00.445Z,1.00
2022-11-16T20:11:29.221Z,0.90
2022-11-16T20:13:57.631Z,0.90
2022-11-16T20:16:26.811Z,1.00
2022-11-16T20:18:54.526Z,0.90
2022-11-16T20:21:28.946Z,1.00
2022-11-16T20:24:03.110Z,1.00
2022-11-16T20:26:33.690Z,1.00
2022-11-16T20:29:00.716Z,0.90
2022-11-16T20:31:29.832Z,0.90
2022-11-16T20:34:02.342Z,0.90
2022-11-16T20:36:31.262Z,0.90
2022-11-16T20:38:59.532Z,0.90
2022-11-16T20:41:30.843Z,0.90
2022-11-16T20:43:59.968Z,1.00
2022-11-16T20:46:29.354Z,1.00
2022-11-16T20:48:59.421Z,0.90
2022-11-16T20:51:27.401Z,0.90
2022-11-16T20:53:54.443Z,0.90
2022-11-16T20:56:21.657Z,0.90
2022-11-16T20:58:49.783Z,0.90
2022-11-16T21:01:28.534Z,0.90
2022-11-16T21:03:56.738Z,0.90
2022-11-16T21:06:23.934Z,0.90
2022-11-16T21:08:50.986Z,0.80
2022-11-16T21:11:21.054Z,0.80
2022-11-16T21:14:07.271Z,0.80
2022-11-16T21:16:35.024Z,0.80
2022-11-16T21:19:03.046Z,0.90
2022-11-16T21:21:32.210Z,0.90
2022-11-16T21:23:59.315Z,0.90
2022-11-16T21:26:28.849Z,0.90
2022-11-16T21:28:56.726Z,0.90
2022-11-16T21:31:26.319Z,0.90
2022-11-16T21:33:54.515Z,0.90
2022-11-16T21:36:24.246Z,0.90
2022-11-16T21:38:51.905Z,0.90
2022-11-16T21:41:20.950Z,0.80
2022-11-16T21:43:48.010Z,0.80
2022-11-16T21:46:17.312Z,0.80
2022-11-16T21:48:45.198Z,0.80
2022-11-16T21:51:14.763Z,0.80
2022-11-16T21:53:42.131Z,0.80
2022-11-16T21:56:16.487Z,0.80
2022-11-16T21:58:43.640Z,0.80
2022-11-16T22:01:11.935Z,0.70
2022-11-16T22:03:39.246Z,0.70
2022-11-16T22:06:26.085Z,0.70
2022-11-16T22:08:53.376Z,0.80
2022-11-16T22:11:22.236Z,0.80
2022-11-16T22:13:50.089Z,0.70
2022-11-16T22:16:18.596Z,0.70
2022-11-16T22:18:45.590Z,0.70
2022-11-16T22:21:12.733Z,0.60
2022-11-16T22:23:40.042Z,0.60
2022-11-16T22:26:10.018Z,0.60
2022-11-16T22:28:37.530Z,0.60
2022-11-16T22:31:05.723Z,0.70
2022-11-16T22:33:33.816Z,0.70
2022-11-16T22:36:01.465Z,0.70
2022-11-16T22:38:28.465Z,0.70
2022-11-16T22:40:57.045Z,0.70
2022-11-16T22:43:28.740Z,0.70
2022-11-16T22:46:04.825Z,0.70
2022-11-16T22:48:35.610Z,0.60
2022-11-16T22:51:12.130Z,0.60
2022-11-16T22:53:39.274Z,0.60
2022-11-16T22:56:08.008Z,0.60
2022-11-16T22:58:36.338Z,0.70
2022-11-16T23:01:04.042Z,0.60
2022-11-16T23:03:31.375Z,0.50
2022-11-16T23:05:58.641Z,0.50
2022-11-16T23:08:26.353Z,0.50
2022-11-16T23:11:31.955Z,0.50
2022-11-16T23:14:18.289Z,0.60
2022-11-16T23:16:45.678Z,0.50
2022-11-16T23:19:33.475Z,0.50
2022-11-16T23:22:18.902Z,0.50
2022-11-16T23:25:04.436Z,0.40
2022-11-16T23:28:00.078Z,0.50
2022-11-16T23:30:27.458Z,0.40
2022-11-16T23:32:54.596Z,0.40
2022-11-16T23:35:22.423Z,0.50
2022-11-16T23:37:56.687Z,0.40
2022-11-16T23:40:30.699Z,0.40
2022-11-16T23:43:16.946Z,0.40
2022-11-16T23:45:44.855Z,0.40
2022-11-16T23:48:14.007Z,0.50
2022-11-16T23:50:41.089Z,0.50
2022-11-16T23:53:09.433Z,0.50
2022-11-16T23:55:38.484Z,0.40
2022-11-16T23:58:06.919Z,0.40
